Terminal Aerodrome Forecast
Issued by NWS

Home | Current Version | Previous Version | Text Only | Print | Product List | Glossary On
Versions: 1 2 3 4 5 6 7 8 9 10 11 12 13 14
806
FTUS45 KRIW 261723
TAFBPI
TAF
KBPI 261723Z 2618/2718 20006KT P6SM SCT100
     FM270600 34005KT P6SM BKN100
     FM271200 32011KT P6SM BKN100=

USA.gov is the U.S. government's official web portal to all federal, state and local government web resources and services.